L'gov, Russia
Current Conditions -  °F | °C
As of 1:00 PM on Sunday 25 Jan 2015 (Local Time) from UUOB Reporting Station
Light Snow Light Snow  
Wind Chill:   Ceiling: 1100
Heat Index: 18°   Visibility: 4mi
Dew Point: 16°   Wind: 13mph
Humidity: 93%   Direction: 110°ESE
Pressure: 30.27"   Gusts: NA
Location:  51.65°N, 35.28°E
Report Text: UUOB 251000Z 11006MPS 7000 -SN OVC011 M08/M09 Q1025 11420550NOSIG
Loading
Personal Weather Stations






























Interactive Weather Map New forecast layout! Learn more

10-Day Weather Forecast

Advertisements
Track Severe Weather on mobile